Time;durP1;ratioP1;P1;durP2;ratioP2;P2;SDS_P1;SDS_P2;PMS_P1;PMS_P2;Temp;Humidity;BMP_temperature;BMP_pressure;BME280_temperature;BME280_humidity;BME280_pressure;Samples;Min_cycle;Max_cycle;Signal;HPM_P1;HPM_P2
2023/04/14 00:02:01;;;;;;;6.43;1.73;;;5.50;99.90;;;;;;4995028;28;20056;-85
2023/04/14 00:04:28;;;;;;;7.97;2.17;;;6.80;99.90;;;;;;4996187;28;20050;-87
2023/04/14 00:06:57;;;;;;;7.55;1.48;;;5.40;99.90;;;;;;5014139;28;20050;-86
2023/04/14 00:09:25;;;;;;;10.30;1.92;;;5.20;99.90;;;;;;5002455;28;20053;-86
2023/04/14 00:11:51;;;;;;;8.93;1.77;;;6.80;99.90;;;;;;4996924;28;20093;-85
2023/04/14 00:14:16;;;;;;;8.15;2.22;;;5.40;99.90;;;;;;5011515;28;20085;-87
2023/04/14 00:16:45;;;;;;;6.70;2.03;;;8.60;99.90;;;;;;5010654;28;20049;-86
2023/04/14 00:19:11;;;;;;;6.85;1.70;;;7.70;99.90;;;;;;5011095;28;20478;-86
2023/04/14 00:21:36;;;;;;;6.88;1.80;;;5.20;99.90;;;;;;4993366;28;20111;-85
2023/04/14 00:24:02;;;;;;;8.80;1.80;;;;;;;;;;4996616;28;20089;-84
2023/04/14 00:26:32;;;;;;;4.88;1.75;;;5.30;99.90;;;;;;5007982;28;20046;-86
2023/04/14 00:29:01;;;;;;;7.57;2.30;;;8.20;99.90;;;;;;5013325;28;20046;-84
2023/04/14 00:31:27;;;;;;;7.40;1.73;;;7.70;99.90;;;;;;4977573;28;20058;-84
2023/04/14 00:33:52;;;;;;;7.90;1.50;;;7.80;99.90;;;;;;4994540;28;20065;-83
2023/04/14 00:36:18;;;;;;;10.50;2.30;;;7.20;99.90;;;;;;4994405;28;20057;-85
2023/04/14 00:38:48;;;;;;;8.05;1.80;;;7.70;99.90;;;;;;5009749;28;20054;-85
2023/04/14 00:41:14;;;;;;;7.05;1.67;;;5.90;99.90;;;;;;5010219;28;20064;-82
2023/04/14 00:43:41;;;;;;;8.05;2.05;;;5.20;99.90;;;;;;4992664;28;20054;-86
2023/04/14 00:46:06;;;;;;;8.68;1.65;;;7.80;99.90;;;;;;4966248;28;20054;-86
2023/04/14 00:48:32;;;;;;;4.78;1.80;;;7.80;99.90;;;;;;5005329;28;20049;-85
2023/04/14 00:50:58;;;;;;;9.20;1.95;;;7.70;99.90;;;;;;4992769;28;20054;-86
2023/04/14 00:53:24;;;;;;;11.50;2.05;;;7.30;99.90;;;;;;4993308;28;20057;-83
2023/04/14 00:55:50;;;;;;;5.97;2.30;;;7.80;99.90;;;;;;5009761;28;20054;-84
2023/04/14 00:58:19;;;;;;;10.90;2.17;;;7.50;99.90;;;;;;4993441;28;20050;-84
2023/04/14 01:00:54;;;;;;;4.80;1.95;;;5.20;99.90;;;;;;4977740;28;20053;-88
2023/04/14 01:03:20;;;;;;;10.95;1.70;;;7.40;99.90;;;;;;4977340;28;20053;-80
2023/04/14 01:05:47;;;;;;;10.27;1.65;;;4.30;99.90;;;;;;4977210;28;20453;-86
2023/04/14 01:08:13;;;;;;;7.63;1.92;;;7.40;99.90;;;;;;4977699;28;20497;-83
2023/04/14 01:10:48;;;;;;;4.88;1.90;;;5.60;99.90;;;;;;4992866;28;20041;-87
2023/04/14 01:13:39;;;;;;;11.35;2.08;;;4.80;99.90;;;;;;5003382;28;20057;-82
2023/04/14 01:16:16;;;;;;;11.00;2.05;;;4.80;99.90;;;;;;4989188;28;20076;-86
2023/04/14 01:18:48;;;;;;;8.85;2.28;;;6.80;99.90;;;;;;4976735;28;20046;-85
2023/04/14 01:21:21;;;;;;;5.30;1.75;;;4.80;99.90;;;;;;4969721;28;20398;-83
2023/04/14 01:24:32;;;;;;;5.63;1.77;;;4.60;99.90;;;;;;4993342;28;20057;-87
2023/04/14 01:27:26;;;;;;;11.93;2.97;;;4.70;99.90;;;;;;4944530;28;20393;-86
2023/04/14 01:30:16;;;;;;;11.25;3.22;;;4.80;99.90;;;;;;4972054;28;20074;-87
2023/04/14 01:32:45;;;;;;;11.85;3.10;;;4.80;99.90;;;;;;4962362;28;20058;-85
2023/04/14 01:35:22;;;;;;;12.73;4.72;;;4.80;99.90;;;;;;4986845;28;20117;-87
2023/04/14 01:37:51;;;;;;;14.48;4.03;;;4.40;99.90;;;;;;4990943;28;20104;-86
2023/04/14 01:40:19;;;;;;;12.20;3.15;;;7.10;99.90;;;;;;4993579;28;20104;-85
2023/04/14 01:42:50;;;;;;;11.32;2.95;;;7.30;99.90;;;;;;4975656;28;20221;-88
2023/04/14 01:45:25;;;;;;;11.02;3.25;;;4.60;99.90;;;;;;4994637;28;20520;-86
2023/04/14 01:47:51;;;;;;;;;;;4.80;99.90;;;;;;4976869;28;20401;-88
2023/04/14 01:50:18;;;;;;;8.95;2.63;;;4.80;99.90;;;;;;4995449;28;19943;-85
2023/04/14 01:52:50;;;;;;;8.70;2.63;;;4.90;99.90;;;;;;4979250;28;20050;-87
2023/04/14 01:55:19;;;;;;;7.28;3.30;;;4.70;99.90;;;;;;4970910;28;20054;-88
2023/04/14 01:57:49;;;;;;;11.23;3.35;;;5.30;99.90;;;;;;4988956;28;20046;-84
2023/04/14 02:00:20;;;;;;;5.55;2.53;;;4.60;99.90;;;;;;4989337;28;20046;-87
2023/04/14 02:02:53;;;;;;;4.93;2.08;;;7.20;99.90;;;;;;5004912;28;20088;-86
2023/04/14 02:05:22;;;;;;;10.43;2.45;;;7.40;99.90;;;;;;4981683;28;20050;-84
2023/04/14 02:07:51;;;;;;;7.45;2.50;;;7.40;99.90;;;;;;5004672;28;20140;-85
2023/04/14 02:10:20;;;;;;;6.85;1.90;;;4.50;99.90;;;;;;4996602;28;20042;-86
2023/04/14 02:12:47;;;;;;;5.95;2.05;;;4.60;99.90;;;;;;5011940;28;20559;-84
2023/04/14 02:15:16;;;;;;;8.70;2.47;;;4.50;99.90;;;;;;5002736;28;20409;-85
2023/04/14 02:17:47;;;;;;;9.15;2.05;;;3.10;99.90;;;;;;4976670;28;20038;-85
2023/04/14 02:20:15;;;;;;;7.38;2.20;;;6.40;99.90;;;;;;5005951;28;20053;-86
2023/04/14 02:22:41;;;;;;;7.05;2.75;;;5.10;99.90;;;;;;4994821;28;20105;-83
2023/04/14 02:25:07;;;;;;;6.38;1.80;;;7.60;99.90;;;;;;5023292;28;20148;-87
2023/04/14 02:27:38;;;;;;;4.70;1.45;;;4.50;99.90;;;;;;5022804;28;20053;-86
2023/04/14 02:30:10;;;;;;;4.40;1.35;;;7.50;99.90;;;;;;5005630;28;20061;-85
2023/04/14 02:32:39;;;;;;;9.35;2.45;;;4.40;99.90;;;;;;4983113;28;20565;-86
2023/04/14 02:35:17;;;;;;;6.32;1.80;;;7.20;99.90;;;;;;5005521;28;20093;-87
2023/04/14 02:37:47;;;;;;;5.32;1.30;;;4.40;99.90;;;;;;4999763;28;20141;-86
2023/04/14 02:40:25;;;;;;;6.07;1.83;;;6.20;99.90;;;;;;4976486;28;20053;-85
2023/04/14 02:43:00;;;;;;;6.65;2.40;;;4.40;99.90;;;;;;4996890;28;20072;-86
2023/04/14 02:45:35;;;;;;;9.45;3.15;;;3.80;99.90;;;;;;4981080;28;20049;-86
2023/04/14 02:48:10;;;;;;;18.30;7.95;;;4.30;99.90;;;;;;4996276;28;20042;-84
2023/04/14 02:50:37;;;;;;;30.63;12.15;;;6.00;99.90;;;;;;4961635;28;20119;-86
2023/04/14 02:53:04;;;;;;;17.02;6.88;;;4.40;99.90;;;;;;5008402;28;20092;-87
2023/04/14 02:55:31;;;;;;;8.73;2.67;;;4.20;99.90;;;;;;5005835;28;20049;-87
2023/04/14 02:58:01;;;;;;;6.93;2.30;;;4.40;99.90;;;;;;5005828;28;20045;-87
2023/04/14 03:00:32;;;;;;;7.57;1.85;;;4.60;99.90;;;;;;5004495;28;21021;-84
2023/04/14 03:03:01;;;;;;;5.93;1.77;;;6.30;99.90;;;;;;4988912;28;20098;-85
2023/04/14 03:05:27;;;;;;;9.73;1.95;;;4.00;99.90;;;;;;4983762;28;20062;-86
2023/04/14 03:07:54;;;;;;;11.43;2.65;;;4.20;99.90;;;;;;5000714;28;20470;-84
2023/04/14 03:10:24;;;;;;;11.73;2.13;;;;;;;;;;5004553;28;20065;-87
2023/04/14 03:12:51;;;;;;;5.18;2.15;;;4.20;99.90;;;;;;5011440;28;20510;-87
2023/04/14 03:15:18;;;;;;;6.93;1.92;;;4.20;99.90;;;;;;4985484;28;20065;-87
2023/04/14 03:17:52;;;;;;;9.52;2.28;;;4.20;99.90;;;;;;5002283;28;20125;-85
2023/04/14 03:20:22;;;;;;;4.53;1.60;;;3.80;99.90;;;;;;4983899;28;20059;-87
2023/04/14 03:23:03;;;;;;;6.88;1.25;;;2.10;99.90;;;;;;4989535;28;20437;-86
2023/04/14 03:25:33;;;;;;;3.78;1.55;;;3.70;99.90;;;;;;4984325;28;20050;-86
2023/04/14 03:28:02;;;;;;;5.63;1.40;;;4.20;99.90;;;;;;4985780;28;20532;-88
2023/04/14 03:30:30;;;;;;;1.95;0.90;;;5.70;99.90;;;;;;4987996;28;20052;-86
2023/04/14 03:33:01;;;;;;;8.05;1.90;;;4.90;99.90;;;;;;4974808;28;20041;-86
2023/04/14 03:35:28;;;;;;;3.47;1.23;;;6.50;99.90;;;;;;4999560;28;20092;-88
2023/04/14 03:37:58;;;;;;;5.88;1.27;;;4.10;99.90;;;;;;4984268;28;20133;-85
2023/04/14 03:40:30;;;;;;;6.63;1.40;;;4.00;99.90;;;;;;5002111;28;20061;-86
2023/04/14 03:42:57;;;;;;;6.40;1.30;;;3.90;99.90;;;;;;4987598;28;20057;-87
2023/04/14 03:45:27;;;;;;;4.32;1.70;;;7.00;99.90;;;;;;5000104;28;20641;-86
2023/04/14 03:47:56;;;;;;;6.20;1.45;;;6.70;99.90;;;;;;4999373;28;20050;-84
2023/04/14 03:50:30;;;;;;;7.28;1.50;;;3.80;99.90;;;;;;5004698;28;20049;-87
2023/04/14 03:52:58;;;;;;;4.03;1.10;;;4.00;99.90;;;;;;4987662;28;20042;-86
2023/04/14 03:55:27;;;;;;;3.40;1.33;;;3.40;99.90;;;;;;4982981;28;20078;-84
2023/04/14 03:57:58;;;;;;;5.63;2.10;;;6.00;99.90;;;;;;4983887;28;20057;-86
2023/04/14 04:00:25;;;;;;;6.88;1.88;;;3.80;99.90;;;;;;5002674;28;20050;-87
2023/04/14 04:02:52;;;;;;;3.75;1.73;;;3.90;99.90;;;;;;4967112;28;20042;-87
2023/04/14 04:05:20;;;;;;;6.10;1.55;;;5.70;99.90;;;;;;5006696;28;20392;-81
2023/04/14 04:07:49;;;;;;;8.05;1.63;;;3.70;99.90;;;;;;4996239;28;20560;-85
2023/04/14 04:10:15;;;;;;;7.65;1.20;;;6.50;99.90;;;;;;4993542;28;20418;-86
2023/04/14 04:12:43;;;;;;;4.93;2.00;;;3.70;99.90;;;;;;5009919;28;20121;-86
2023/04/14 04:15:09;;;;;;;6.25;1.10;;;3.80;99.90;;;;;;4997424;28;20104;-87
2023/04/14 04:17:37;;;;;;;6.65;1.73;;;3.80;99.90;;;;;;4993077;28;20045;-89
2023/04/14 04:20:08;;;;;;;5.07;1.55;;;4.00;99.90;;;;;;4995406;28;20104;-88
2023/04/14 04:22:40;;;;;;;5.30;1.40;;;3.80;99.90;;;;;;5006858;28;20086;-86
2023/04/14 04:25:08;;;;;;;7.00;2.00;;;6.60;99.90;;;;;;5005716;28;20050;-87
2023/04/14 04:27:34;;;;;;;6.95;1.90;;;3.80;99.90;;;;;;4999174;28;20038;-88
2023/04/14 04:30:00;;;;;;;3.55;1.95;;;3.60;99.90;;;;;;4990495;28;20505;-87
2023/04/14 04:32:27;;;;;;;7.63;1.60;;;3.70;99.90;;;;;;5004509;28;20100;-88
2023/04/14 04:34:53;;;;;;;4.32;1.50;;;3.30;99.90;;;;;;4986769;28;20050;-87
2023/04/14 04:37:20;;;;;;;4.72;1.48;;;6.50;99.90;;;;;;5003928;28;20405;-87
2023/04/14 04:39:49;;;;;;;7.15;1.40;;;6.70;99.90;;;;;;4982931;28;20520;-86
2023/04/14 04:42:16;;;;;;;8.35;1.38;;;3.80;99.90;;;;;;4999226;28;20492;-86
2023/04/14 04:44:42;;;;;;;7.35;2.20;;;;;;;;;;4998361;28;20050;-87
2023/04/14 04:47:09;;;;;;;2.72;1.40;;;3.70;99.90;;;;;;4983280;28;20057;-85
2023/04/14 04:49:35;;;;;;;7.28;1.92;;;;;;;;;;5001458;28;20048;-86
2023/04/14 04:52:01;;;;;;;3.42;1.58;;;;;;;;;;4985676;28;20046;-84
2023/04/14 04:54:26;;;;;;;5.35;1.90;;;3.70;99.90;;;;;;4994066;28;20056;-87
2023/04/14 04:56:52;;;;;;;4.78;1.40;;;6.90;99.90;;;;;;4985323;28;20413;-86
2023/04/14 04:59:18;;;;;;;11.68;2.35;;;3.30;99.90;;;;;;4983976;28;20061;-87
2023/04/14 05:01:44;;;;;;;9.95;2.13;;;3.00;99.90;;;;;;4982772;28;20050;-88
2023/04/14 05:04:10;;;;;;;7.50;1.50;;;3.70;99.90;;;;;;4998323;28;20839;-86
2023/04/14 05:06:36;;;;;;;4.68;2.20;;;6.30;99.90;;;;;;5003221;28;20420;-86
2023/04/14 05:09:03;;;;;;;8.65;2.25;;;3.50;99.90;;;;;;5011128;28;20100;-87
2023/04/14 05:11:34;;;;;;;10.23;1.98;;;3.50;99.90;;;;;;4999346;28;20072;-83
2023/04/14 05:14:00;;;;;;;5.45;2.00;;;6.00;99.90;;;;;;4982175;28;20046;-83
2023/04/14 05:16:27;;;;;;;5.47;1.98;;;3.60;99.90;;;;;;4984009;28;20085;-83
2023/04/14 05:18:53;;;;;;;11.25;2.40;;;6.30;99.90;;;;;;5000638;28;20129;-84
2023/04/14 05:21:19;;;;;;;5.55;1.50;;;5.70;99.90;;;;;;5004399;28;20144;-80
2023/04/14 05:23:45;;;;;;;13.00;2.50;;;3.60;99.90;;;;;;5008112;28;20121;-84
2023/04/14 05:26:12;;;;;;;7.20;1.80;;;6.60;99.90;;;;;;4988568;28;20046;-88
2023/04/14 05:28:38;;;;;;;7.05;1.85;;;6.30;99.90;;;;;;4990668;28;20506;-87
2023/04/14 05:31:04;;;;;;;5.78;1.58;;;3.60;99.90;;;;;;4998723;28;20066;-87
2023/04/14 05:33:30;;;;;;;6.82;2.00;;;3.60;99.90;;;;;;4983608;28;20053;-87
2023/04/14 05:35:55;;;;;;;16.52;2.88;;;3.60;99.90;;;;;;4985297;28;20058;-87
2023/04/14 05:38:21;;;;;;;6.07;2.03;;;3.40;99.90;;;;;;4992642;28;20129;-85
2023/04/14 05:40:47;;;;;;;7.55;2.00;;;5.20;99.90;;;;;;4983148;28;20050;-86
2023/04/14 05:43:16;;;;;;;4.88;1.50;;;3.30;99.90;;;;;;4981148;28;20077;-86
2023/04/14 05:45:42;;;;;;;2.20;1.40;;;3.60;99.90;;;;;;4984244;28;20497;-84
2023/04/14 05:48:08;;;;;;;6.55;1.63;;;3.60;99.90;;;;;;4999953;28;20418;-87
2023/04/14 05:50:37;;;;;;;8.15;2.15;;;3.40;99.90;;;;;;4983923;28;20115;-85
2023/04/14 05:53:02;;;;;;;9.73;2.40;;;3.60;99.90;;;;;;4997620;28;20502;-82
2023/04/14 05:55:28;;;;;;;8.60;1.63;;;1.20;99.90;;;;;;4980871;28;20053;-86
2023/04/14 05:57:54;;;;;;;6.45;1.60;;;6.40;99.90;;;;;;4999256;28;20405;-88
2023/04/14 06:00:22;;;;;;;6.15;1.92;;;3.20;99.90;;;;;;4981210;28;20054;-80
2023/04/14 06:02:47;;;;;;;5.35;1.70;;;3.90;99.90;;;;;;4984932;28;20042;-85
2023/04/14 06:05:13;;;;;;;4.57;1.20;;;3.60;99.90;;;;;;5001239;28;20398;-85
2023/04/14 06:07:40;;;;;;;7.65;2.05;;;5.60;99.90;;;;;;4979841;28;20662;-87
2023/04/14 06:10:07;;;;;;;8.48;1.85;;;5.70;99.90;;;;;;4973657;28;20042;-87
2023/04/14 06:12:32;;;;;;;8.93;2.00;;;3.50;99.90;;;;;;5006964;28;20104;-86
2023/04/14 06:14:58;;;;;;;9.27;2.13;;;3.70;99.90;;;;;;4980884;28;20474;-84
2023/04/14 06:17:24;;;;;;;6.45;1.85;;;3.90;99.90;;;;;;4989403;28;20088;-88
2023/04/14 06:19:50;;;;;;;5.82;2.08;;;;;;;;;;4997564;28;20588;-89
2023/04/14 06:22:18;;;;;;;7.55;2.40;;;3.90;99.90;;;;;;5001909;28;20057;-84
2023/04/14 06:24:44;;;;;;;8.98;2.22;;;4.10;99.90;;;;;;5001565;28;20206;-87
2023/04/14 06:27:10;;;;;;;7.93;2.70;;;3.90;99.90;;;;;;4985825;28;20086;-83
2023/04/14 06:29:38;;;;;;;9.00;2.58;;;7.00;99.90;;;;;;4987253;28;20045;-81
2023/04/14 06:32:05;;;;;;;5.40;2.17;;;4.20;99.90;;;;;;5004988;28;20058;-87
2023/04/14 06:34:34;;;;;;;9.10;2.38;;;5.40;99.90;;;;;;4982062;28;20116;-87
2023/04/14 06:37:00;;;;;;;11.70;2.17;;;6.80;99.90;;;;;;4964129;28;20109;-82
2023/04/14 06:39:26;;;;;;;10.82;2.05;;;4.10;99.90;;;;;;4997953;28;20069;-82
2023/04/14 06:41:52;;;;;;;6.30;2.08;;;3.80;99.90;;;;;;4984368;28;20189;-83
2023/04/14 06:44:18;;;;;;;9.95;2.05;;;;;;;;;;4993301;28;20133;-87
2023/04/14 06:46:44;;;;;;;10.15;1.90;;;4.80;99.90;;;;;;4995195;28;20042;-85
2023/04/14 06:49:10;;;;;;;9.13;2.05;;;4.60;99.90;;;;;;4978408;28;20046;-85
2023/04/14 06:51:37;;;;;;;6.95;1.50;;;4.70;99.90;;;;;;4982068;28;20738;-84
2023/04/14 06:54:04;;;;;;;5.13;1.67;;;4.90;99.90;;;;;;4984879;28;20089;-87
2023/04/14 06:56:30;;;;;;;3.75;2.00;;;5.00;99.90;;;;;;4980473;28;20054;-87
2023/04/14 06:58:59;;;;;;;10.93;2.38;;;;;;;;;;4324565;28;10000735;-85
2023/04/14 07:01:25;;;;;;;9.02;1.90;;;5.20;99.90;;;;;;4997340;28;20047;-89
2023/04/14 07:03:51;;;;;;;8.43;2.03;;;5.30;99.90;;;;;;4976774;28;20425;-88
2023/04/14 07:06:16;;;;;;;12.18;2.00;;;7.60;99.90;;;;;;5011273;28;20049;-80
2023/04/14 07:08:43;;;;;;;4.45;1.90;;;8.40;99.90;;;;;;4992604;28;20050;-79
2023/04/14 07:11:10;;;;;;;8.63;1.67;;;5.40;99.90;;;;;;4991279;28;20064;-81
2023/04/14 07:13:36;;;;;;;6.70;2.15;;;;;;;;;;5026784;28;20496;-81
2023/04/14 07:16:02;;;;;;;8.13;2.00;;;5.80;99.90;;;;;;4995822;28;20123;-86
2023/04/14 07:18:31;;;;;;;4.68;1.55;;;5.10;99.90;;;;;;4992056;28;20053;-84
2023/04/14 07:20:58;;;;;;;9.43;1.85;;;8.50;99.90;;;;;;4995427;28;20084;-88
2023/04/14 07:23:24;;;;;;;7.10;1.70;;;7.90;99.90;;;;;;4989613;28;20092;-88
2023/04/14 07:25:55;;;;;;;6.03;1.40;;;8.90;99.90;;;;;;5006080;28;20386;-88
2023/04/14 07:28:25;;;;;;;6.03;1.77;;;6.30;99.90;;;;;;5006901;28;20049;-85
2023/04/14 07:30:54;;;;;;;14.35;3.05;;;8.60;99.90;;;;;;4999658;28;20136;-81
2023/04/14 07:33:21;;;;;;;9.57;1.73;;;8.60;99.90;;;;;;5015548;28;20042;-85
2023/04/14 07:35:54;;;;;;;10.23;2.22;;;7.00;99.90;;;;;;5012894;28;20041;-85
2023/04/14 07:38:20;;;;;;;10.48;1.90;;;9.00;99.90;;;;;;5006022;28;20537;-81
2023/04/14 07:40:48;;;;;;;11.68;2.58;;;7.90;99.90;;;;;;4996908;28;20052;-83
2023/04/14 07:43:14;;;;;;;6.63;1.85;;;6.50;99.90;;;;;;4999706;28;20053;-82
2023/04/14 07:45:41;;;;;;;6.38;1.58;;;6.70;99.90;;;;;;5002249;28;20080;-88
2023/04/14 07:48:07;;;;;;;6.75;2.35;;;9.50;99.90;;;;;;4997283;28;20509;-81
2023/04/14 07:50:32;;;;;;;6.95;1.42;;;8.70;99.90;;;;;;4995687;28;20053;-81
2023/04/14 07:52:58;;;;;;;10.85;1.83;;;9.50;99.90;;;;;;4993639;28;20073;-78
2023/04/14 07:55:25;;;;;;;6.82;1.80;;;9.80;99.90;;;;;;5029170;28;20159;-83
2023/04/14 07:57:53;;;;;;;10.45;1.75;;;7.00;99.90;;;;;;4998558;28;20250;-83
2023/04/14 08:00:21;;;;;;;6.35;1.25;;;7.30;99.90;;;;;;4983442;28;20038;-83
2023/04/14 08:02:47;;;;;;;7.05;1.67;;;7.30;99.90;;;;;;4971226;28;20045;-82
2023/04/14 08:05:13;;;;;;;3.83;1.20;;;7.50;99.90;;;;;;4985715;28;20362;-83
2023/04/14 08:07:38;;;;;;;9.52;1.63;;;7.50;99.90;;;;;;5000737;28;20050;-83
2023/04/14 08:10:05;;;;;;;8.23;1.52;;;9.20;99.90;;;;;;4999415;28;20046;-83
2023/04/14 08:12:30;;;;;;;10.05;1.88;;;7.60;99.90;;;;;;4982867;28;20047;-85
2023/04/14 08:14:56;;;;;;;8.55;1.92;;;9.20;99.90;;;;;;5002901;28;20053;-83
2023/04/14 08:17:22;;;;;;;13.80;2.25;;;10.30;99.90;;;;;;5002140;28;20502;-83
2023/04/14 08:19:48;;;;;;;7.32;1.40;;;8.40;99.90;;;;;;4998473;28;20129;-83
2023/04/14 08:22:14;;;;;;;10.30;2.10;;;9.30;99.90;;;;;;4999724;28;20090;-83
2023/04/14 08:24:39;;;;;;;4.88;1.75;;;8.50;99.90;;;;;;5001115;28;20069;-83
2023/04/14 08:27:05;;;;;;;9.40;1.52;;;8.10;99.90;;;;;;5003572;28;20053;-83
2023/04/14 08:29:30;;;;;;;7.97;1.67;;;6.40;99.90;;;;;;5001069;28;20104;-83
2023/04/14 08:31:56;;;;;;;10.60;1.90;;;8.00;99.90;;;;;;4999491;28;20450;-83
2023/04/14 08:34:22;;;;;;;7.05;1.48;;;8.20;99.90;;;;;;4999744;28;20050;-83
2023/04/14 08:36:47;;;;;;;4.78;1.13;;;10.40;99.90;;;;;;4985986;28;20081;-84
2023/04/14 08:39:13;;;;;;;9.77;1.48;;;8.50;99.90;;;;;;4985881;28;20076;-83
2023/04/14 08:41:39;;;;;;;7.68;2.20;;;8.60;99.90;;;;;;5000749;28;20526;-83
2023/04/14 08:44:08;;;;;;;9.23;1.90;;;8.60;99.90;;;;;;5000231;28;20046;-83
2023/04/14 08:46:35;;;;;;;7.10;1.67;;;8.70;99.90;;;;;;4999400;28;20637;-84
2023/04/14 08:49:05;;;;;;;7.75;1.65;;;8.80;99.90;;;;;;5008104;28;20122;-77
2023/04/14 08:51:35;;;;;;;4.60;1.48;;;11.20;99.90;;;;;;5008615;28;20080;-82
2023/04/14 08:54:04;;;;;;;10.43;2.30;;;8.90;99.90;;;;;;4980873;28;20085;-83
2023/04/14 08:56:35;;;;;;;8.80;2.33;;;9.00;99.90;;;;;;4980363;28;20046;-83
2023/04/14 08:59:01;;;;;;;7.80;1.80;;;10.40;99.90;;;;;;4984701;28;20045;-81
2023/04/14 09:01:29;;;;;;;9.20;2.38;;;11.40;99.90;;;;;;4988198;28;20308;-81
2023/04/14 09:03:56;;;;;;;11.48;1.65;;;9.20;99.90;;;;;;5003626;28;20065;-85
2023/04/14 09:06:22;;;;;;;12.00;1.60;;;9.40;99.90;;;;;;5001327;28;20054;-86
2023/04/14 09:08:51;;;;;;;10.30;2.10;;;9.30;99.90;;;;;;5004403;28;20666;-85
2023/04/14 09:11:17;;;;;;;5.45;1.88;;;10.30;99.90;;;;;;5005495;28;20608;-84
2023/04/14 09:13:44;;;;;;;12.98;1.92;;;8.70;99.90;;;;;;5002517;28;20492;-87
2023/04/14 09:16:11;;;;;;;8.15;1.67;;;9.70;99.90;;;;;;5001574;28;20064;-81
2023/04/14 09:18:37;;;;;;;11.82;2.53;;;11.90;99.90;;;;;;4985302;28;20054;-84
2023/04/14 09:21:03;;;;;;;8.20;2.00;;;10.80;99.90;;;;;;4988768;28;20065;-85
2023/04/14 09:23:32;;;;;;;8.77;2.40;;;9.80;99.90;;;;;;5003417;28;20064;-85
2023/04/14 09:25:58;;;;;;;8.80;1.60;;;9.90;99.90;;;;;;4989019;28;20045;-85
2023/04/14 09:28:26;;;;;;;6.72;1.35;;;9.90;99.90;;;;;;4988225;28;20503;-84
2023/04/14 09:30:53;;;;;;;5.68;1.40;;;10.00;99.90;;;;;;5019100;28;20129;-83
2023/04/14 09:33:20;;;;;;;7.75;1.70;;;11.10;99.90;;;;;;4984868;28;20042;-82
2023/04/14 09:35:50;;;;;;;5.10;1.30;;;10.00;99.90;;;;;;4987337;28;20058;-82
2023/04/14 09:38:35;;;;;;;6.18;1.40;;;11.80;99.90;;;;;;5021945;28;20084;-81
2023/04/14 09:41:01;;;;;;;;;;;10.20;99.90;;;;;;5001562;28;20050;-82
2023/04/14 09:43:28;;;;;;;7.75;1.77;;;10.20;99.90;;;;;;4983941;28;19929;-81
2023/04/14 09:45:54;;;;;;;5.65;1.58;;;12.20;99.90;;;;;;5021845;28;20045;-81
2023/04/14 09:48:20;;;;;;;7.18;1.92;;;12.20;99.90;;;;;;4995636;28;20540;-81
2023/04/14 09:51:10;;;;;;;12.95;1.85;;;10.90;99.90;;;;;;5006220;28;20057;-82
2023/04/14 09:53:39;;;;;;;13.70;1.90;;;11.80;99.90;;;;;;4984794;28;20148;-82
2023/04/14 09:56:11;;;;;;;12.18;1.95;;;10.70;99.90;;;;;;4993061;28;20084;-82
2023/04/14 09:58:40;;;;;;;9.07;2.15;;;10.80;99.90;;;;;;4982335;28;20058;-81
2023/04/14 10:01:18;;;;;;;7.88;1.50;;;10.80;99.90;;;;;;4981298;28;20086;-82
2023/04/14 10:03:48;;;;;;;9.38;1.65;;;12.60;99.90;;;;;;4998557;28;20054;-81
2023/04/14 10:06:19;;;;;;;8.55;2.45;;;12.30;99.90;;;;;;4983646;28;20617;-81
2023/04/14 10:08:47;;;;;;;8.15;1.48;;;13.00;99.90;;;;;;5002651;28;20414;-81
2023/04/14 10:11:14;;;;;;;13.55;1.77;;;11.10;99.90;;;;;;4981300;28;20058;-82
2023/04/14 10:13:41;;;;;;;9.07;1.83;;;11.20;99.90;;;;;;4997139;28;20254;-81
2023/04/14 10:16:07;;;;;;;4.10;1.40;;;12.00;99.90;;;;;;4985669;28;20062;-80
2023/04/14 10:18:33;;;;;;;9.07;1.30;;;13.00;99.90;;;;;;4986134;28;20049;-82
2023/04/14 10:21:00;;;;;;;9.70;1.67;;;11.40;99.90;;;;;;4981808;28;20046;-83
2023/04/14 10:23:30;;;;;;;6.93;1.67;;;11.40;99.90;;;;;;4998065;28;20053;-85
2023/04/14 10:25:57;;;;;;;16.70;2.05;;;11.40;99.90;;;;;;4981410;28;20125;-81
2023/04/14 10:28:25;;;;;;;48.55;5.07;;;13.20;99.90;;;;;;4971324;28;20057;-81
2023/04/14 10:32:02;;;;;;;26.95;2.85;;;12.30;99.90;;;;;;4980843;28;20452;-83
2023/04/14 10:35:21;;;;;;;9.43;1.70;;;11.60;99.90;;;;;;4936765;29;20095;-83
2023/04/14 10:37:51;;;;;;;5.45;1.73;;;11.70;99.90;;;;;;4921039;29;20063;-80
2023/04/14 10:40:17;;;;;;;14.82;2.13;;;11.80;99.90;;;;;;4962986;28;20054;-80
2023/04/14 10:42:55;;;;;;;10.10;1.52;;;12.10;99.90;;;;;;4985644;28;20141;-82
2023/04/14 10:45:22;;;;;;;9.35;1.67;;;11.90;99.90;;;;;;5000659;28;20124;-82
2023/04/14 10:47:48;;;;;;;8.60;1.65;;;12.30;99.90;;;;;;4982413;28;20490;-84
2023/04/14 10:50:23;;;;;;;9.65;1.38;;;12.70;99.90;;;;;;4997050;28;20060;-83
2023/04/14 10:52:54;;;;;;;5.68;1.35;;;11.90;99.90;;;;;;4312208;28;10000709;-84
2023/04/14 10:55:22;;;;;;;7.93;1.60;;;11.80;99.90;;;;;;5002497;28;20096;-84
2023/04/14 10:57:48;;;;;;;8.82;1.75;;;11.80;99.90;;;;;;4997637;28;20081;-85
2023/04/14 11:00:20;;;;;;;9.73;1.92;;;11.80;99.90;;;;;;4999682;28;20092;-85
2023/04/14 11:03:13;;;;;;;9.07;1.45;;;11.70;99.90;;;;;;4996818;28;20068;-83
2023/04/14 11:05:50;;;;;;;7.45;1.38;;;11.70;99.90;;;;;;4998790;28;20421;-83
2023/04/14 11:08:32;;;;;;;7.45;1.85;;;11.70;99.90;;;;;;4997085;28;20054;-83
2023/04/14 11:11:16;;;;;;;8.60;1.75;;;11.70;99.90;;;;;;4998127;28;20099;-82
2023/04/14 11:13:42;;;;;;;7.80;1.65;;;13.20;99.90;;;;;;4996974;28;20042;-83
2023/04/14 11:16:08;;;;;;;10.30;1.48;;;13.20;99.90;;;;;;5001616;28;20131;-83
2023/04/14 11:18:41;;;;;;;6.68;1.60;;;11.70;99.90;;;;;;4996069;28;20054;-86
2023/04/14 11:21:09;;;;;;;7.43;1.83;;;13.30;99.90;;;;;;4998452;28;20405;-85
2023/04/14 11:23:37;;;;;;;10.95;2.08;;;12.10;99.90;;;;;;4996918;28;20129;-86
2023/04/14 11:26:08;;;;;;;6.47;1.50;;;12.20;99.90;;;;;;4998963;28;20134;-86
2023/04/14 11:28:39;;;;;;;13.13;2.58;;;14.70;99.90;;;;;;4982871;28;20053;-87
2023/04/14 11:31:12;;;;;;;7.53;1.95;;;13.30;99.90;;;;;;4980227;28;20051;-85
2023/04/14 11:33:43;;;;;;;10.35;1.77;;;12.40;99.90;;;;;;4980117;28;20164;-81
2023/04/14 11:36:11;;;;;;;5.97;1.27;;;12.60;99.90;;;;;;4979890;28;20169;-82
2023/04/14 11:38:40;;;;;;;4.55;1.48;;;12.70;99.90;;;;;;4979942;28;20046;-81
2023/04/14 11:41:07;;;;;;;4.75;1.15;;;12.80;99.90;;;;;;5001856;28;20050;-80
2023/04/14 11:43:32;;;;;;;5.80;1.13;;;12.90;99.90;;;;;;4986333;28;20077;-81
2023/04/14 11:45:59;;;;;;;6.88;2.10;;;14.00;99.90;;;;;;5001479;28;20395;-81
2023/04/14 11:48:27;;;;;;;8.48;1.23;;;13.20;99.90;;;;;;4999390;28;20038;-80
2023/04/14 11:50:54;;;;;;;12.50;1.55;;;13.40;99.90;;;;;;5008686;28;20050;-81
2023/04/14 11:53:20;;;;;;;4.35;0.82;;;14.90;99.90;;;;;;4983369;28;20443;-82
2023/04/14 11:55:50;;;;;;;5.05;1.17;;;13.70;99.90;;;;;;4999731;28;20089;-82
2023/04/14 11:58:26;;;;;;;12.05;1.35;;;13.90;99.90;;;;;;4999083;28;20047;-82
2023/04/14 12:00:52;;;;;;;7.40;1.60;;;16.30;99.90;;;;;;4984148;28;20058;-82
2023/04/14 12:03:19;;;;;;;5.45;1.10;;;14.40;99.90;;;;;;4986225;28;20041;-81
2023/04/14 12:05:45;;;;;;;5.80;1.40;;;14.80;99.90;;;;;;4986149;28;20416;-81
2023/04/14 12:08:14;;;;;;;7.20;1.38;;;14.70;99.90;;;;;;4999656;28;20074;-81
2023/04/14 12:10:40;;;;;;;8.48;1.40;;;15.20;99.90;;;;;;4982824;28;20092;-82
2023/04/14 12:13:10;;;;;;;7.20;1.42;;;15.20;99.90;;;;;;5006459;28;20038;-82
2023/04/14 12:15:41;;;;;;;8.43;1.00;;;15.10;99.90;;;;;;4986507;28;20073;-82
2023/04/14 12:18:16;;;;;;;6.78;1.52;;;15.10;99.90;;;;;;4983635;28;20085;-81
2023/04/14 12:21:08;;;;;;;6.45;1.38;;;15.10;99.90;;;;;;4982451;28;20053;-80
2023/04/14 12:23:35;;;;;;;8.05;1.38;;;16.80;99.90;;;;;;4979810;28;20116;-82
2023/04/14 12:26:01;;;;;;;6.72;1.38;;;16.20;99.90;;;;;;5001401;28;20462;-82
2023/04/14 12:28:27;;;;;;;3.55;1.25;;;14.80;99.90;;;;;;4985836;28;20054;-82
2023/04/14 12:31:02;;;;;;;6.43;1.30;;;15.80;99.90;;;;;;5002294;28;20068;-81
2023/04/14 12:33:29;;;;;;;8.25;1.15;;;14.50;99.90;;;;;;4982326;28;20057;-82
2023/04/14 12:36:11;;;;;;;7.22;1.33;;;15.40;99.90;;;;;;4999985;28;20405;-82
2023/04/14 12:38:37;;;;;;;6.32;1.48;;;15.90;99.90;;;;;;4985800;28;20061;-83
2023/04/14 12:41:03;;;;;;;7.18;1.08;;;14.40;99.90;;;;;;5003112;28;20058;-81
2023/04/14 12:43:34;;;;;;;5.55;1.15;;;14.60;99.90;;;;;;5000898;28;20079;-82
2023/04/14 12:46:02;;;;;;;6.72;1.25;;;16.00;99.90;;;;;;4992618;28;20050;-81
2023/04/14 12:48:38;;;;;;;7.28;1.42;;;16.40;99.90;;;;;;4984037;28;20050;-83
2023/04/14 12:51:09;;;;;;;15.60;1.92;;;15.00;99.90;;;;;;4981365;28;20112;-82
2023/04/14 12:53:35;;;;;;;15.23;1.85;;;15.30;99.90;;;;;;4997244;28;20100;-82
2023/04/14 12:56:15;;;;;;;8.80;1.38;;;15.40;99.90;;;;;;5001203;28;20055;-80
2023/04/14 12:58:42;;;;;;;6.75;1.25;;;15.50;99.90;;;;;;4999204;28;20058;-79
2023/04/14 13:01:12;;;;;;;7.15;1.42;;;15.60;99.90;;;;;;4986817;28;20058;-80
2023/04/14 13:03:48;;;;;;;8.63;1.40;;;15.70;99.20;;;;;;4985446;28;20049;-80
2023/04/14 13:06:15;;;;;;;4.93;1.17;;;15.80;97.10;;;;;;5000874;28;20062;-81